sensor_id;sensor_type;location;lat;lon;timestamp;pressure;altitude;pressure_sealevel;temperature;humidity
8573;BME280;4324;42.012;24.872;2023-01-01T00:00:13;100425.78;;;7.98;80.69
8573;BME280;4324;42.012;24.872;2023-01-01T00:02:40;100418.59;;;8.00;81.00
8573;BME280;4324;42.012;24.872;2023-01-01T00:05:08;100424.59;;;8.02;81.13
8573;BME280;4324;42.012;24.872;2023-01-01T00:07:35;100421.00;;;8.03;81.01
8573;BME280;4324;42.012;24.872;2023-01-01T00:10:02;100408.75;;;7.91;80.97
8573;BME280;4324;42.012;24.872;2023-01-01T00:12:47;100413.78;;;7.94;81.03
8573;BME280;4324;42.012;24.872;2023-01-01T00:15:15;100426.50;;;8.00;81.31
8573;BME280;4324;42.012;24.872;2023-01-01T00:17:42;100369.09;;;7.68;81.05
8573;BME280;4324;42.012;24.872;2023-01-01T00:20:09;100410.06;;;7.96;81.13
8573;BME280;4324;42.012;24.872;2023-01-01T00:22:36;100422.69;;;8.04;81.24
8573;BME280;4324;42.012;24.872;2023-01-01T00:25:05;100415.34;;;7.96;81.20
8573;BME280;4324;42.012;24.872;2023-01-01T00:27:32;100429.88;;;8.02;81.01
8573;BME280;4324;42.012;24.872;2023-01-01T00:29:59;100442.22;;;8.02;80.89
8573;BME280;4324;42.012;24.872;2023-01-01T00:32:27;100427.47;;;7.99;80.84
8573;BME280;4324;42.012;24.872;2023-01-01T00:34:54;100421.69;;;7.94;80.98
8573;BME280;4324;42.012;24.872;2023-01-01T00:37:21;100434.41;;;8.00;80.92
8573;BME280;4324;42.012;24.872;2023-01-01T00:39:48;100426.97;;;7.94;81.01
8573;BME280;4324;42.012;24.872;2023-01-01T00:42:15;100420.00;;;7.93;80.83
8573;BME280;4324;42.012;24.872;2023-01-01T00:44:42;100424.66;;;7.89;81.08
8573;BME280;4324;42.012;24.872;2023-01-01T00:47:09;100416.38;;;7.83;81.13
8573;BME280;4324;42.012;24.872;2023-01-01T00:49:37;100442.06;;;7.92;81.04
8573;BME280;4324;42.012;24.872;2023-01-01T00:52:04;100441.34;;;7.90;81.11
8573;BME280;4324;42.012;24.872;2023-01-01T00:54:31;100444.91;;;7.89;81.29
8573;BME280;4324;42.012;24.872;2023-01-01T00:56:58;100438.31;;;7.83;81.14
8573;BME280;4324;42.012;24.872;2023-01-01T00:59:25;100438.19;;;7.85;81.41
8573;BME280;4324;42.012;24.872;2023-01-01T01:01:52;100419.81;;;7.72;81.46
8573;BME280;4324;42.012;24.872;2023-01-01T01:04:19;100454.53;;;7.90;81.37
8573;BME280;4324;42.012;24.872;2023-01-01T01:06:47;100459.69;;;7.91;81.59
8573;BME280;4324;42.012;24.872;2023-01-01T01:09:14;100449.97;;;7.92;81.89
8573;BME280;4324;42.012;24.872;2023-01-01T01:11:41;100448.75;;;7.85;81.42
8573;BME280;4324;42.012;24.872;2023-01-01T01:14:08;100461.97;;;7.96;81.44
8573;BME280;4324;42.012;24.872;2023-01-01T01:16:35;100458.63;;;7.94;81.51
8573;BME280;4324;42.012;24.872;2023-01-01T01:19:03;100460.31;;;7.95;81.63
8573;BME280;4324;42.012;24.872;2023-01-01T01:21:32;100439.88;;;7.86;81.72
8573;BME280;4324;42.012;24.872;2023-01-01T01:24:02;100449.97;;;7.92;81.59
8573;BME280;4324;42.012;24.872;2023-01-01T01:26:31;100426.81;;;7.84;81.54
8573;BME280;4324;42.012;24.872;2023-01-01T01:28:59;100417.66;;;7.77;81.47
8573;BME280;4324;42.012;24.872;2023-01-01T01:31:28;100410.09;;;7.72;81.41
8573;BME280;4324;42.012;24.872;2023-01-01T01:33:55;100421.13;;;7.78;81.54
8573;BME280;4324;42.012;24.872;2023-01-01T01:36:23;100429.31;;;7.86;81.40
8573;BME280;4324;42.012;24.872;2023-01-01T01:38:51;100424.16;;;7.84;81.52
8573;BME280;4324;42.012;24.872;2023-01-01T01:41:22;100417.94;;;7.85;81.40
8573;BME280;4324;42.012;24.872;2023-01-01T01:43:53;100414.59;;;7.83;81.42
8573;BME280;4324;42.012;24.872;2023-01-01T01:46:25;100389.56;;;7.65;81.35
8573;BME280;4324;42.012;24.872;2023-01-01T01:48:55;100403.44;;;7.80;81.35
8573;BME280;4324;42.012;24.872;2023-01-01T01:51:28;100416.59;;;7.80;81.46
8573;BME280;4324;42.012;24.872;2023-01-01T01:53:59;100412.03;;;7.82;81.70
8573;BME280;4324;42.012;24.872;2023-01-01T01:56:33;100412.75;;;7.72;81.53
8573;BME280;4324;42.012;24.872;2023-01-01T01:59:04;100400.00;;;7.66;81.43
8573;BME280;4324;42.012;24.872;2023-01-01T02:01:32;100415.88;;;7.78;81.79
8573;BME280;4324;42.012;24.872;2023-01-01T02:04:00;100350.25;;;7.38;81.67
8573;BME280;4324;42.012;24.872;2023-01-01T02:06:29;100423.56;;;7.81;81.72
8573;BME280;4324;42.012;24.872;2023-01-01T02:08:58;100423.34;;;7.84;81.81
8573;BME280;4324;42.012;24.872;2023-01-01T02:11:26;100417.09;;;7.85;81.47
8573;BME280;4324;42.012;24.872;2023-01-01T02:13:55;100420.69;;;7.60;81.33
8573;BME280;4324;42.012;24.872;2023-01-01T02:16:27;100402.19;;;7.24;81.57
8573;BME280;4324;42.012;24.872;2023-01-01T02:19:01;100425.81;;;7.13;82.09
8573;BME280;4324;42.012;24.872;2023-01-01T02:21:36;100415.75;;;6.82;82.37
8573;BME280;4324;42.012;24.872;2023-01-01T02:24:20;100401.88;;;6.41;83.01
8573;BME280;4324;42.012;24.872;2023-01-01T02:26:57;100421.69;;;6.47;83.99
8573;BME280;4324;42.012;24.872;2023-01-01T02:29:36;100419.38;;;6.42;84.84
8573;BME280;4324;42.012;24.872;2023-01-01T02:32:08;100436.72;;;6.45;84.55
8573;BME280;4324;42.012;24.872;2023-01-01T02:34:39;100434.50;;;6.39;84.54
8573;BME280;4324;42.012;24.872;2023-01-01T02:37:10;100436.59;;;6.34;85.22
8573;BME280;4324;42.012;24.872;2023-01-01T02:39:41;100420.19;;;6.17;85.28
8573;BME280;4324;42.012;24.872;2023-01-01T02:42:10;100445.75;;;6.28;85.41
8573;BME280;4324;42.012;24.872;2023-01-01T02:44:41;100448.72;;;6.23;85.56
8573;BME280;4324;42.012;24.872;2023-01-01T02:47:13;100442.38;;;6.13;85.87
8573;BME280;4324;42.012;24.872;2023-01-01T02:49:48;100446.88;;;6.11;85.94
8573;BME280;4324;42.012;24.872;2023-01-01T02:52:26;100430.25;;;5.98;85.91
8573;BME280;4324;42.012;24.872;2023-01-01T02:55:00;100371.03;;;5.65;86.77
8573;BME280;4324;42.012;24.872;2023-01-01T02:57:34;100417.63;;;6.03;87.17
8573;BME280;4324;42.012;24.872;2023-01-01T03:00:06;100428.81;;;6.19;87.51
8573;BME280;4324;42.012;24.872;2023-01-01T03:03:15;100413.75;;;6.21;87.62
8573;BME280;4324;42.012;24.872;2023-01-01T03:05:49;100432.41;;;6.44;87.57
8573;BME280;4324;42.012;24.872;2023-01-01T03:08:43;100416.19;;;6.50;87.32
8573;BME280;4324;42.012;24.872;2023-01-01T03:11:14;100424.72;;;6.66;87.44
8573;BME280;4324;42.012;24.872;2023-01-01T03:13:47;100415.44;;;6.73;87.73
8573;BME280;4324;42.012;24.872;2023-01-01T03:16:20;100405.44;;;6.78;88.03
8573;BME280;4324;42.012;24.872;2023-01-01T03:18:54;100419.31;;;6.93;87.28
8573;BME280;4324;42.012;24.872;2023-01-01T03:21:48;100399.31;;;6.91;86.90
8573;BME280;4324;42.012;24.872;2023-01-01T03:24:21;100418.69;;;7.02;86.81
8573;BME280;4324;42.012;24.872;2023-01-01T03:26:52;100411.81;;;7.00;86.39
8573;BME280;4324;42.012;24.872;2023-01-01T03:29:23;100420.00;;;7.08;86.16
8573;BME280;4324;42.012;24.872;2023-01-01T03:31:55;100342.50;;;6.63;85.80
8573;BME280;4324;42.012;24.872;2023-01-01T03:34:27;100411.69;;;7.14;85.69
8573;BME280;4324;42.012;24.872;2023-01-01T03:36:56;100424.09;;;7.25;85.30
8573;BME280;4324;42.012;24.872;2023-01-01T03:39:28;100426.38;;;7.30;84.96
8573;BME280;4324;42.012;24.872;2023-01-01T03:42:03;100393.47;;;7.11;84.94
8573;BME280;4324;42.012;24.872;2023-01-01T03:44:39;100425.63;;;7.40;84.39
8573;BME280;4324;42.012;24.872;2023-01-01T03:47:11;100359.91;;;7.02;84.53
8573;BME280;4324;42.012;24.872;2023-01-01T03:49:39;100289.63;;;6.66;84.60
8573;BME280;4324;42.012;24.872;2023-01-01T03:52:14;100434.91;;;7.46;84.56
8573;BME280;4324;42.012;24.872;2023-01-01T03:54:54;100444.47;;;7.47;84.89
8573;BME280;4324;42.012;24.872;2023-01-01T03:57:29;100445.44;;;7.46;85.28
8573;BME280;4324;42.012;24.872;2023-01-01T04:00:04;100421.75;;;7.33;85.74
8573;BME280;4324;42.012;24.872;2023-01-01T04:02:36;100452.72;;;7.42;85.68
8573;BME280;4324;42.012;24.872;2023-01-01T04:05:07;100427.84;;;7.34;85.68
8573;BME280;4324;42.012;24.872;2023-01-01T04:07:35;100452.31;;;7.36;86.09
8573;BME280;4324;42.012;24.872;2023-01-01T04:10:04;100453.56;;;7.30;85.92
8573;BME280;4324;42.012;24.872;2023-01-01T04:12:45;100444.13;;;7.15;86.29
8573;BME280;4324;42.012;24.872;2023-01-01T04:15:13;100443.41;;;7.13;86.21
8573;BME280;4324;42.012;24.872;2023-01-01T04:17:42;100436.28;;;7.02;86.80
8573;BME280;4324;42.012;24.872;2023-01-01T04:20:09;100440.38;;;7.06;87.03
8573;BME280;4324;42.012;24.872;2023-01-01T04:22:37;100421.94;;;6.93;87.11
8573;BME280;4324;42.012;24.872;2023-01-01T04:25:05;100443.22;;;7.03;87.21
8573;BME280;4324;42.012;24.872;2023-01-01T04:27:32;100441.22;;;7.07;87.31
8573;BME280;4324;42.012;24.872;2023-01-01T04:29:59;100432.81;;;7.01;87.55
8573;BME280;4324;42.012;24.872;2023-01-01T04:32:26;100444.69;;;7.07;87.40
8573;BME280;4324;42.012;24.872;2023-01-01T04:34:56;100408.19;;;6.90;87.91
8573;BME280;4324;42.012;24.872;2023-01-01T04:37:23;100440.88;;;7.11;88.16
8573;BME280;4324;42.012;24.872;2023-01-01T04:39:50;100443.31;;;7.14;88.25
8573;BME280;4324;42.012;24.872;2023-01-01T04:42:17;100421.09;;;7.06;88.16
8573;BME280;4324;42.012;24.872;2023-01-01T04:44:44;100441.78;;;7.23;88.27
8573;BME280;4324;42.012;24.872;2023-01-01T04:47:11;100422.22;;;7.14;88.09
8573;BME280;4324;42.012;24.872;2023-01-01T04:49:38;100416.94;;;7.14;87.74
8573;BME280;4324;42.012;24.872;2023-01-01T04:52:06;100415.28;;;7.13;87.38
8573;BME280;4324;42.012;24.872;2023-01-01T04:54:33;100360.38;;;6.83;87.50
8573;BME280;4324;42.012;24.872;2023-01-01T04:57:00;100432.41;;;7.32;87.17
8573;BME280;4324;42.012;24.872;2023-01-01T04:59:28;100435.03;;;7.32;86.93
8573;BME280;4324;42.012;24.872;2023-01-01T05:01:55;100439.34;;;7.33;86.78
8573;BME280;4324;42.012;24.872;2023-01-01T05:04:22;100434.00;;;7.34;86.31
8573;BME280;4324;42.012;24.872;2023-01-01T05:06:49;100439.00;;;7.37;85.79
8573;BME280;4324;42.012;24.872;2023-01-01T05:09:17;100444.06;;;7.40;85.77
8573;BME280;4324;42.012;24.872;2023-01-01T05:11:44;100444.91;;;7.41;85.84
8573;BME280;4324;42.012;24.872;2023-01-01T05:14:11;100420.13;;;7.19;85.77
8573;BME280;4324;42.012;24.872;2023-01-01T05:16:39;100453.56;;;7.43;85.81
8573;BME280;4324;42.012;24.872;2023-01-01T05:19:06;100448.38;;;7.41;85.64
8573;BME280;4324;42.012;24.872;2023-01-01T05:21:35;100431.66;;;7.30;85.67
8573;BME280;4324;42.012;24.872;2023-01-01T05:24:05;100446.00;;;7.38;86.65
8573;BME280;4324;42.012;24.872;2023-01-01T05:26:35;100435.88;;;7.32;86.51
8573;BME280;4324;42.012;24.872;2023-01-01T05:29:04;100466.28;;;7.49;86.51
8573;BME280;4324;42.012;24.872;2023-01-01T05:31:33;100456.47;;;7.51;85.90
8573;BME280;4324;42.012;24.872;2023-01-01T05:34:01;100439.63;;;7.41;85.51
8573;BME280;4324;42.012;24.872;2023-01-01T05:36:30;100437.97;;;7.40;85.21
8573;BME280;4324;42.012;24.872;2023-01-01T05:38:57;100432.91;;;7.37;85.48
8573;BME280;4324;42.012;24.872;2023-01-01T05:41:24;100453.97;;;7.49;85.33
8573;BME280;4324;42.012;24.872;2023-01-01T05:43:53;100477.50;;;7.64;86.27
8573;BME280;4324;42.012;24.872;2023-01-01T05:46:21;100485.19;;;7.67;86.36
8573;BME280;4324;42.012;24.872;2023-01-01T05:48:48;100466.41;;;7.47;87.09
8573;BME280;4324;42.012;24.872;2023-01-01T05:51:17;100490.53;;;7.54;87.46
8573;BME280;4324;42.012;24.872;2023-01-01T05:53:45;100490.53;;;7.41;87.81
8573;BME280;4324;42.012;24.872;2023-01-01T05:56:13;100484.38;;;7.30;88.11
8573;BME280;4324;42.012;24.872;2023-01-01T05:58:41;100477.66;;;7.13;88.65
8573;BME280;4324;42.012;24.872;2023-01-01T06:01:11;100480.50;;;7.10;89.69
8573;BME280;4324;42.012;24.872;2023-01-01T06:03:39;100479.88;;;7.06;90.14
8573;BME280;4324;42.012;24.872;2023-01-01T06:06:08;100470.94;;;6.83;90.15
8573;BME280;4324;42.012;24.872;2023-01-01T06:08:36;100493.66;;;6.97;90.30
8573;BME280;4324;42.012;24.872;2023-01-01T06:11:04;100485.06;;;6.95;90.85
8573;BME280;4324;42.012;24.872;2023-01-01T06:13:31;100496.63;;;6.92;90.82
8573;BME280;4324;42.012;24.872;2023-01-01T06:16:00;100471.47;;;6.75;91.65
8573;BME280;4324;42.012;24.872;2023-01-01T06:18:30;100471.25;;;6.78;91.70
8573;BME280;4324;42.012;24.872;2023-01-01T06:21:03;100456.41;;;6.77;92.34
8573;BME280;4324;42.012;24.872;2023-01-01T06:23:30;100492.75;;;6.98;91.96
8573;BME280;4324;42.012;24.872;2023-01-01T06:26:03;100481.03;;;7.02;92.58
8573;BME280;4324;42.012;24.872;2023-01-01T06:28:30;100486.09;;;7.05;92.32
8573;BME280;4324;42.012;24.872;2023-01-01T06:30:58;100482.63;;;7.05;92.47
8573;BME280;4324;42.012;24.872;2023-01-01T06:33:25;100462.31;;;6.94;92.97
8573;BME280;4324;42.012;24.872;2023-01-01T06:35:54;100467.53;;;7.07;92.95
8573;BME280;4324;42.012;24.872;2023-01-01T06:38:20;100445.84;;;7.03;92.38
8573;BME280;4324;42.012;24.872;2023-01-01T06:40:54;100443.94;;;7.18;91.10
8573;BME280;4324;42.012;24.872;2023-01-01T06:43:21;100448.66;;;7.25;89.83
8573;BME280;4324;42.012;24.872;2023-01-01T06:45:58;100439.41;;;7.44;88.91
8573;BME280;4324;42.012;24.872;2023-01-01T06:48:26;100429.72;;;7.44;87.61
8573;BME280;4324;42.012;24.872;2023-01-01T06:50:54;100454.09;;;7.72;87.05
8573;BME280;4324;42.012;24.872;2023-01-01T06:53:23;100454.94;;;7.72;86.78
8573;BME280;4324;42.012;24.872;2023-01-01T06:55:50;100432.38;;;7.68;87.29
8573;BME280;4324;42.012;24.872;2023-01-01T06:58:17;100465.66;;;7.93;86.92
8573;BME280;4324;42.012;24.872;2023-01-01T07:00:44;100496.44;;;8.06;87.44
8573;BME280;4324;42.012;24.872;2023-01-01T07:03:10;100463.19;;;7.68;87.89
8573;BME280;4324;42.012;24.872;2023-01-01T07:05:38;100496.22;;;7.85;88.72
8573;BME280;4324;42.012;24.872;2023-01-01T07:08:08;100493.53;;;7.73;88.72
8573;BME280;4324;42.012;24.872;2023-01-01T07:10:35;100496.84;;;7.64;90.30
8573;BME280;4324;42.012;24.872;2023-01-01T07:13:02;100458.34;;;7.25;91.24
8573;BME280;4324;42.012;24.872;2023-01-01T07:15:29;100484.22;;;7.44;90.85
8573;BME280;4324;42.012;24.872;2023-01-01T07:17:56;100514.47;;;7.51;91.11
8573;BME280;4324;42.012;24.872;2023-01-01T07:20:23;100491.78;;;7.48;91.01
8573;BME280;4324;42.012;24.872;2023-01-01T07:22:50;100478.81;;;7.58;93.14
8573;BME280;4324;42.012;24.872;2023-01-01T07:25:18;100485.88;;;7.82;91.97
8573;BME280;4324;42.012;24.872;2023-01-01T07:27:45;100473.44;;;7.84;91.85
8573;BME280;4324;42.012;24.872;2023-01-01T07:30:12;100440.22;;;7.81;91.40
8573;BME280;4324;42.012;24.872;2023-01-01T07:32:39;100491.81;;;8.20;90.13
8573;BME280;4324;42.012;24.872;2023-01-01T07:35:07;100462.41;;;8.14;90.25
8573;BME280;4324;42.012;24.872;2023-01-01T07:37:34;100479.13;;;8.25;90.19
8573;BME280;4324;42.012;24.872;2023-01-01T07:40:01;100493.31;;;8.36;91.15
8573;BME280;4324;42.012;24.872;2023-01-01T07:42:29;100489.22;;;8.32;90.42
8573;BME280;4324;42.012;24.872;2023-01-01T07:44:56;100497.03;;;8.33;90.24
8573;BME280;4324;42.012;24.872;2023-01-01T07:47:24;100510.56;;;8.29;90.65
8573;BME280;4324;42.012;24.872;2023-01-01T07:49:52;100507.03;;;8.17;90.49
8573;BME280;4324;42.012;24.872;2023-01-01T07:52:19;100509.06;;;8.13;90.78
8573;BME280;4324;42.012;24.872;2023-01-01T07:54:46;100484.75;;;7.97;90.61
8573;BME280;4324;42.012;24.872;2023-01-01T07:57:12;100506.66;;;8.10;90.58
8573;BME280;4324;42.012;24.872;2023-01-01T07:59:41;100501.38;;;8.10;90.46
8573;BME280;4324;42.012;24.872;2023-01-01T08:02:09;100480.84;;;8.03;90.69
8573;BME280;4324;42.012;24.872;2023-01-01T08:04:37;100487.91;;;8.02;90.55
8573;BME280;4324;42.012;24.872;2023-01-01T08:07:04;100454.72;;;7.75;90.60
8573;BME280;4324;42.012;24.872;2023-01-01T08:09:31;100522.25;;;8.13;90.35
8573;BME280;4324;42.012;24.872;2023-01-01T08:11:58;100496.88;;;7.99;89.80
8573;BME280;4324;42.012;24.872;2023-01-01T08:14:25;100516.16;;;8.13;89.89
8573;BME280;4324;42.012;24.872;2023-01-01T08:16:54;100500.13;;;8.03;89.73
8573;BME280;4324;42.012;24.872;2023-01-01T08:19:21;100529.00;;;8.17;89.74
8573;BME280;4324;42.012;24.872;2023-01-01T08:21:48;100525.53;;;8.17;89.91
8573;BME280;4324;42.012;24.872;2023-01-01T08:24:14;100537.88;;;8.16;90.01
8573;BME280;4324;42.012;24.872;2023-01-01T08:26:41;100513.69;;;7.98;89.67
8573;BME280;4324;42.012;24.872;2023-01-01T08:29:09;100553.00;;;8.25;89.99
8573;BME280;4324;42.012;24.872;2023-01-01T08:31:37;100559.13;;;8.26;89.63
8573;BME280;4324;42.012;24.872;2023-01-01T08:34:05;100532.28;;;8.08;89.21
8573;BME280;4324;42.012;24.872;2023-01-01T08:36:32;100562.28;;;8.31;89.13
8573;BME280;4324;42.012;24.872;2023-01-01T08:38:59;100527.53;;;8.13;88.99
8573;BME280;4324;42.012;24.872;2023-01-01T08:41:26;100560.38;;;8.33;89.15
8573;BME280;4324;42.012;24.872;2023-01-01T08:43:53;100569.44;;;8.42;89.26
8573;BME280;4324;42.012;24.872;2023-01-01T08:46:20;100565.63;;;8.46;89.65
8573;BME280;4324;42.012;24.872;2023-01-01T08:48:47;100560.09;;;8.49;89.52
8573;BME280;4324;42.012;24.872;2023-01-01T08:51:15;100563.88;;;8.58;89.64
8573;BME280;4324;42.012;24.872;2023-01-01T08:53:42;100551.38;;;8.60;89.58
8573;BME280;4324;42.012;24.872;2023-01-01T08:56:11;100561.88;;;8.72;89.59
8573;BME280;4324;42.012;24.872;2023-01-01T08:58:41;100563.31;;;8.77;89.27
8573;BME280;4324;42.012;24.872;2023-01-01T09:01:09;100557.56;;;8.83;88.66
8573;BME280;4324;42.012;24.872;2023-01-01T09:03:36;100544.38;;;8.83;88.30
8573;BME280;4324;42.012;24.872;2023-01-01T09:06:03;100543.19;;;8.87;87.49
8573;BME280;4324;42.012;24.872;2023-01-01T09:08:32;100542.81;;;8.91;87.38
8573;BME280;4324;42.012;24.872;2023-01-01T09:11:00;100535.28;;;8.98;87.49
8573;BME280;4324;42.012;24.872;2023-01-01T09:13:28;100527.44;;;9.08;87.43
8573;BME280;4324;42.012;24.872;2023-01-01T09:15:55;100511.72;;;9.06;87.45
8573;BME280;4324;42.012;24.872;2023-01-01T09:18:23;100520.25;;;9.21;87.57
8573;BME280;4324;42.012;24.872;2023-01-01T09:20:50;100501.75;;;9.21;87.70
8573;BME280;4324;42.012;24.872;2023-01-01T09:23:17;100495.88;;;9.29;87.83
8573;BME280;4324;42.012;24.872;2023-01-01T09:25:45;100480.00;;;9.29;87.56
8573;BME280;4324;42.012;24.872;2023-01-01T09:28:12;100500.53;;;9.48;87.46
8573;BME280;4324;42.012;24.872;2023-01-01T09:30:39;100498.94;;;9.56;87.31
8573;BME280;4324;42.012;24.872;2023-01-01T09:33:06;100494.97;;;9.62;87.18
8573;BME280;4324;42.012;24.872;2023-01-01T09:35:33;100474.31;;;9.56;87.31
8573;BME280;4324;42.012;24.872;2023-01-01T09:38:03;100489.66;;;9.73;87.04
8573;BME280;4324;42.012;24.872;2023-01-01T09:40:34;100474.63;;;9.74;87.03
8573;BME280;4324;42.012;24.872;2023-01-01T09:43:13;100478.06;;;9.85;87.17
8573;BME280;4324;42.012;24.872;2023-01-01T09:45:53;100467.84;;;9.92;87.01
8573;BME280;4324;42.012;24.872;2023-01-01T09:48:22;100453.38;;;9.96;87.03
8573;BME280;4324;42.012;24.872;2023-01-01T09:50:50;100467.75;;;10.14;86.96
8573;BME280;4324;42.012;24.872;2023-01-01T09:53:24;100456.91;;;10.17;86.24
8573;BME280;4324;42.012;24.872;2023-01-01T09:55:57;100447.50;;;10.25;86.23
8573;BME280;4324;42.012;24.872;2023-01-01T09:58:27;100458.69;;;10.49;86.37
8573;BME280;4324;42.012;24.872;2023-01-01T10:00:59;100449.25;;;10.56;86.24
8573;BME280;4324;42.012;24.872;2023-01-01T10:03:34;100451.69;;;10.69;86.42
8573;BME280;4324;42.012;24.872;2023-01-01T10:06:14;100438.31;;;10.71;86.29
8573;BME280;4324;42.012;24.872;2023-01-01T10:08:57;100440.09;;;10.91;86.15
8573;BME280;4324;42.012;24.872;2023-01-01T10:11:37;100430.66;;;10.98;86.01
8573;BME280;4324;42.012;24.872;2023-01-01T10:14:15;100420.31;;;11.05;85.68
8573;BME280;4324;42.012;24.872;2023-01-01T10:16:45;100433.66;;;11.24;85.44
8573;BME280;4324;42.012;24.872;2023-01-01T10:19:21;100427.94;;;11.29;85.29
8573;BME280;4324;42.012;24.872;2023-01-01T10:21:54;100411.50;;;11.35;85.69
8573;BME280;4324;42.012;24.872;2023-01-01T10:24:37;100423.25;;;11.52;85.45
8573;BME280;4324;42.012;24.872;2023-01-01T10:27:12;100404.00;;;11.50;85.52
8573;BME280;4324;42.012;24.872;2023-01-01T10:29:49;100422.84;;;11.66;85.21
8573;BME280;4324;42.012;24.872;2023-01-01T10:32:19;100405.38;;;11.63;84.87
8573;BME280;4324;42.012;24.872;2023-01-01T10:34:48;100416.03;;;11.83;84.38
8573;BME280;4324;42.012;24.872;2023-01-01T10:37:16;100396.22;;;11.87;83.80
8573;BME280;4324;42.012;24.872;2023-01-01T10:39:44;100401.78;;;12.03;83.36
8573;BME280;4324;42.012;24.872;2023-01-01T10:42:12;100405.56;;;12.10;83.31
8573;BME280;4324;42.012;24.872;2023-01-01T10:44:41;100411.97;;;12.18;82.94
8573;BME280;4324;42.012;24.872;2023-01-01T10:47:31;100415.59;;;12.26;82.45
8573;BME280;4324;42.012;24.872;2023-01-01T10:49:59;100411.97;;;12.27;82.15
8573;BME280;4324;42.012;24.872;2023-01-01T10:52:30;100408.72;;;12.33;82.21
8573;BME280;4324;42.012;24.872;2023-01-01T10:54:59;100394.88;;;12.30;81.98
8573;BME280;4324;42.012;24.872;2023-01-01T10:57:34;100389.56;;;12.30;82.00
8573;BME280;4324;42.012;24.872;2023-01-01T11:00:21;100402.00;;;12.39;81.41
8573;BME280;4324;42.012;24.872;2023-01-01T11:03:09;100389.28;;;12.33;81.35
8573;BME280;4324;42.012;24.872;2023-01-01T11:05:37;100405.06;;;12.44;81.65
8573;BME280;4324;42.012;24.872;2023-01-01T11:08:15;100392.22;;;12.40;81.54
8573;BME280;4324;42.012;24.872;2023-01-01T11:10:49;100391.78;;;12.44;81.39
8573;BME280;4324;42.012;24.872;2023-01-01T11:13:18;100391.09;;;12.42;81.63
8573;BME280;4324;42.012;24.872;2023-01-01T11:15:46;100396.41;;;12.42;81.75
8573;BME280;4324;42.012;24.872;2023-01-01T11:18:16;100397.38;;;12.41;81.39
8573;BME280;4324;42.012;24.872;2023-01-01T11:20:50;100377.69;;;12.34;81.17
8573;BME280;4324;42.012;24.872;2023-01-01T11:23:27;100384.66;;;12.45;81.18
8573;BME280;4324;42.012;24.872;2023-01-01T11:25:58;100383.53;;;12.47;80.70
8573;BME280;4324;42.012;24.872;2023-01-01T11:28:26;100385.19;;;12.48;80.67
8573;BME280;4324;42.012;24.872;2023-01-01T11:31:20;100361.47;;;12.37;80.89
8573;BME280;4324;42.012;24.872;2023-01-01T11:33:55;100355.16;;;12.38;80.93
8573;BME280;4324;42.012;24.872;2023-01-01T11:36:24;100344.13;;;12.33;80.81
8573;BME280;4324;42.012;24.872;2023-01-01T11:39:06;100314.56;;;12.18;80.88
8573;BME280;4324;42.012;24.872;2023-01-01T11:41:41;100370.34;;;12.55;80.60
8573;BME280;4324;42.012;24.872;2023-01-01T11:44:11;100365.44;;;12.60;80.66
8573;BME280;4324;42.012;24.872;2023-01-01T11:46:39;100367.22;;;12.70;80.30
8573;BME280;4324;42.012;24.872;2023-01-01T11:49:13;100353.22;;;12.68;79.66
8573;BME280;4324;42.012;24.872;2023-01-01T11:51:46;100367.75;;;12.83;79.74
8573;BME280;4324;42.012;24.872;2023-01-01T11:54:24;100366.47;;;12.87;79.58
8573;BME280;4324;42.012;24.872;2023-01-01T11:57:06;100364.03;;;12.94;79.65
8573;BME280;4324;42.012;24.872;2023-01-01T11:59:42;100353.00;;;12.89;79.84
8573;BME280;4324;42.012;24.872;2023-01-01T12:02:13;100345.03;;;12.89;79.58
8573;BME280;4324;42.012;24.872;2023-01-01T12:04:48;100330.22;;;12.86;79.24
8573;BME280;4324;42.012;24.872;2023-01-01T12:07:19;100356.72;;;13.05;79.20
8573;BME280;4324;42.012;24.872;2023-01-01T12:09:52;100307.56;;;12.82;79.30
8573;BME280;4324;42.012;24.872;2023-01-01T12:12:25;100350.78;;;13.12;79.13
8573;BME280;4324;42.012;24.872;2023-01-01T12:14:57;100349.34;;;13.17;79.00
8573;BME280;4324;42.012;24.872;2023-01-01T12:17:32;100335.13;;;13.08;79.08
8573;BME280;4324;42.012;24.872;2023-01-01T12:20:05;100333.16;;;13.11;78.75
8573;BME280;4324;42.012;24.872;2023-01-01T12:22:36;100336.81;;;13.10;78.72
8573;BME280;4324;42.012;24.872;2023-01-01T12:25:03;100337.63;;;13.10;78.56
8573;BME280;4324;42.012;24.872;2023-01-01T12:27:52;100338.00;;;13.15;78.56
8573;BME280;4324;42.012;24.872;2023-01-01T12:30:23;100320.31;;;13.06;78.43
8573;BME280;4324;42.012;24.872;2023-01-01T12:33:02;100327.84;;;13.11;78.41
8573;BME280;4324;42.012;24.872;2023-01-01T12:35:46;100332.69;;;13.15;78.47
8573;BME280;4324;42.012;24.872;2023-01-01T12:38:26;100325.88;;;13.13;78.40
8573;BME280;4324;42.012;24.872;2023-01-01T12:41:03;100325.88;;;13.13;78.75
8573;BME280;4324;42.012;24.872;2023-01-01T12:43:37;100307.44;;;13.01;78.25
8573;BME280;4324;42.012;24.872;2023-01-01T12:46:17;100326.16;;;13.10;78.40
8573;BME280;4324;42.012;24.872;2023-01-01T12:51:46;100298.03;;;13.07;78.36
8573;BME280;4324;42.012;24.872;2023-01-01T12:54:33;100300.94;;;13.14;78.26
8573;BME280;4324;42.012;24.872;2023-01-01T12:57:08;100325.53;;;13.25;78.33
8573;BME280;4324;42.012;24.872;2023-01-01T12:59:43;100319.38;;;13.25;78.20
8573;BME280;4324;42.012;24.872;2023-01-01T13:02:13;100309.00;;;13.22;78.23
8573;BME280;4324;42.012;24.872;2023-01-01T13:04:42;100283.44;;;13.11;78.25
8573;BME280;4324;42.012;24.872;2023-01-01T13:07:13;100293.03;;;13.22;77.76
8573;BME280;4324;42.012;24.872;2023-01-01T13:09:42;100316.50;;;13.36;77.74
8573;BME280;4324;42.012;24.872;2023-01-01T13:12:12;100318.84;;;13.39;77.83
8573;BME280;4324;42.012;24.872;2023-01-01T13:14:42;100312.53;;;13.40;77.90
8573;BME280;4324;42.012;24.872;2023-01-01T13:17:17;100248.56;;;12.96;77.98
8573;BME280;4324;42.012;24.872;2023-01-01T13:19:46;100307.81;;;13.34;78.01
8573;BME280;4324;42.012;24.872;2023-01-01T13:22:38;100314.28;;;13.31;78.01
8573;BME280;4324;42.012;24.872;2023-01-01T13:25:19;100312.06;;;13.27;78.39
8573;BME280;4324;42.012;24.872;2023-01-01T13:28:11;100318.06;;;13.29;78.53